14°C Temp
3°C Dewpoint
% Humidity
Temperature
11 KM/H
7 MPH
6 KTS
260°
Due West

Wind Speed
Despejado
Pressure 1025.92 (hPa) - 30.3 (in)
Visibility 6.2 (mi) - 10.0 (km)

Current Conditions
LEAL
Location 70(km)
Metar :LEAL 092330Z 26006KT CAVOK 14/03 Q1026 NOSIG
Tue 10th December 00:30 am

Airport
  Metar Aviation API Data Provided by https://www.checkwx.com/ PHP scripts by weather34.com ©2019